Terminal Aerodrome Forecast
Issued by NWS

Home | Current Version | Previous Version | Text Only | Print | Product List | Glossary On
Versions: 1 2 3 4 5 6 7 8 9 10 11 12 13 14 15 16 17 18 19 20 21 22 23 24
000
FTUS42 KJAX 032320
TAFVQQ
TAF
KVQQ 032320Z 0400/0424 13010KT P6SM SCT025 BKN045
     FM040600 17004KT P6SM BKN010
     FM040900 17004KT 3SM BR OVC004
      TEMPO 0409/0413 1/2SM FG OVC002
     FM041400 20010KT 3SM BR SCT002 BKN008
     FM041500 21011G16KT P6SM SCT250=

USA.gov is the U.S. government's official web portal to all federal, state and local government web resources and services.